createdAt,value
2023-01-01T00:00:52.147Z,24.67
2023-01-01T00:03:20.907Z,18.53
2023-01-01T00:05:49.730Z,16.23
2023-01-01T00:08:18.272Z,20.67
2023-01-01T00:10:47.178Z,17.70
2023-01-01T00:13:16.064Z,20.73
2023-01-01T00:15:46.073Z,15.83
2023-01-01T00:18:14.866Z,16.80
2023-01-01T00:20:43.479Z,16.53
2023-01-01T00:23:12.936Z,16.37
2023-01-01T00:25:41.878Z,12.73
2023-01-01T00:28:10.743Z,11.87
2023-01-01T00:30:42.040Z,12.47
2023-01-01T00:33:12.062Z,13.63
2023-01-01T00:35:40.757Z,9.83
2023-01-01T00:38:09.423Z,8.50
2023-01-01T00:40:38.570Z,20.40
2023-01-01T00:43:07.374Z,9.20
2023-01-01T00:45:36.063Z,11.23
2023-01-01T00:48:04.932Z,10.20
2023-01-01T00:50:34.988Z,9.30
2023-01-01T00:53:03.589Z,11.77
2023-01-01T00:55:32.084Z,10.27
2023-01-01T00:58:00.668Z,10.30
2023-01-01T01:00:29.302Z,8.03
2023-01-01T01:02:57.861Z,11.67
2023-01-01T01:05:26.395Z,10.67
2023-01-01T01:07:56.611Z,17.17
2023-01-01T01:10:26.348Z,13.20
2023-01-01T01:12:55.206Z,11.23
2023-01-01T01:15:23.844Z,11.57
2023-01-01T01:17:52.381Z,13.10
2023-01-01T01:20:23.224Z,12.50
2023-01-01T01:22:51.998Z,14.27
2023-01-01T01:25:22.609Z,10.47
2023-01-01T01:27:51.654Z,7.00
2023-01-01T01:30:20.247Z,15.17
2023-01-01T01:32:48.706Z,12.03
2023-01-01T01:35:17.282Z,9.63
2023-01-01T01:37:46.248Z,8.47
2023-01-01T01:40:17.708Z,11.07
2023-01-01T01:42:52.123Z,7.40
2023-01-01T01:45:21.441Z,8.97
2023-01-01T01:47:52.369Z,7.97
2023-01-01T01:50:27.391Z,7.93
2023-01-01T01:53:05.017Z,6.10
2023-01-01T01:55:36.883Z,9.20
2023-01-01T01:58:08.428Z,6.37
2023-01-01T02:00:37.783Z,9.77
2023-01-01T02:03:09.891Z,6.37
2023-01-01T02:05:40.515Z,4.80
2023-01-01T02:08:10.354Z,10.93
2023-01-01T02:10:39.610Z,16.20
2023-01-01T02:13:11.035Z,11.43
2023-01-01T02:15:47.999Z,5.77
2023-01-01T02:18:21.592Z,8.73
2023-01-01T02:20:53.925Z,4.23
2023-01-01T02:23:35.942Z,4.40
2023-01-01T02:26:24.113Z,7.33
2023-01-01T02:29:00.828Z,8.30
2023-01-01T02:31:33.892Z,6.97
2023-01-01T02:34:06.825Z,8.40
2023-01-01T02:36:41.383Z,8.23
2023-01-01T02:39:18.091Z,8.23
2023-01-01T02:41:50.460Z,10.27
2023-01-01T02:44:24.347Z,5.20
2023-01-01T02:46:53.375Z,10.37
2023-01-01T02:49:22.313Z,14.57
2023-01-01T02:52:03.153Z,6.27
2023-01-01T02:54:36.569Z,9.07
2023-01-01T02:57:11.650Z,7.00
2023-01-01T03:00:14.582Z,6.53
2023-01-01T03:02:54.503Z,8.53
2023-01-01T03:05:32.550Z,8.50
2023-01-01T03:08:08.831Z,10.10
2023-01-01T03:10:44.553Z,9.43
2023-01-01T03:13:21.743Z,8.63
2023-01-01T03:16:01.075Z,9.93
2023-01-01T03:18:35.563Z,7.70
2023-01-01T03:21:07.125Z,11.00
2023-01-01T03:23:38.716Z,4.57
2023-01-01T03:26:11.078Z,7.17
2023-01-01T03:28:45.227Z,6.87
2023-01-01T03:31:21.242Z,6.17
2023-01-01T03:33:53.421Z,10.00
2023-01-01T03:36:25.844Z,5.17
2023-01-01T03:39:00.102Z,10.73
2023-01-01T03:41:37.217Z,6.30
2023-01-01T03:44:10.406Z,7.50
2023-01-01T03:46:40.627Z,5.93
2023-01-01T03:49:12.962Z,5.00
2023-01-01T03:52:01.903Z,4.67
2023-01-01T03:54:42.003Z,4.67
2023-01-01T03:57:19.456Z,4.50
2023-01-01T03:59:54.760Z,6.00
2023-01-01T04:02:30.165Z,6.13
2023-01-01T04:05:03.015Z,6.83
2023-01-01T04:07:32.954Z,5.33
2023-01-01T04:10:17.349Z,9.63
2023-01-01T04:12:48.573Z,4.90
2023-01-01T04:15:17.920Z,7.70
2023-01-01T04:17:47.964Z,6.17
2023-01-01T04:20:17.247Z,5.13
2023-01-01T04:22:46.563Z,6.73
2023-01-01T04:25:17.707Z,7.63
2023-01-01T04:27:46.430Z,13.90
2023-01-01T04:30:16.689Z,5.17
2023-01-01T04:32:45.657Z,5.17
2023-01-01T04:35:16.550Z,5.17
2023-01-01T04:37:46.351Z,5.53
2023-01-01T04:40:15.457Z,10.50
2023-01-01T04:42:44.620Z,9.13
2023-01-01T04:45:15.516Z,6.30
2023-01-01T04:47:44.711Z,11.43
2023-01-01T04:50:13.092Z,4.83
2023-01-01T04:52:43.191Z,6.03
2023-01-01T04:55:11.745Z,4.17
2023-01-01T04:57:40.254Z,4.67
2023-01-01T05:00:10.097Z,5.30
2023-01-01T05:02:38.753Z,11.57
2023-01-01T05:05:07.824Z,7.17
2023-01-01T05:07:37.100Z,7.77
2023-01-01T05:10:08.282Z,4.97
2023-01-01T05:12:38.979Z,4.87
2023-01-01T05:15:08.705Z,12.70
2023-01-01T05:17:37.117Z,14.23
2023-01-01T05:20:06.670Z,5.60
2023-01-01T05:22:35.224Z,9.13
2023-01-01T05:25:06.848Z,7.93
2023-01-01T05:27:35.318Z,9.97
2023-01-01T05:30:03.895Z,6.40
2023-01-01T05:32:32.538Z,5.97
2023-01-01T05:35:01.321Z,4.70
2023-01-01T05:37:29.923Z,8.40
2023-01-01T05:39:58.553Z,6.13
2023-01-01T05:42:28.462Z,8.37
2023-01-01T05:44:56.932Z,7.27
2023-01-01T05:47:29.649Z,8.40
2023-01-01T05:49:58.809Z,4.60
2023-01-01T05:52:27.416Z,5.13
2023-01-01T05:54:55.924Z,7.47
2023-01-01T05:57:24.669Z,6.47
2023-01-01T05:59:54.545Z,5.83
2023-01-01T06:02:23.088Z,6.63
2023-01-01T06:04:51.663Z,5.63
2023-01-01T06:07:20.492Z,9.43
2023-01-01T06:09:49.004Z,5.40
2023-01-01T06:12:17.498Z,6.93
2023-01-01T06:14:48.836Z,5.90
2023-01-01T06:17:18.640Z,11.00
2023-01-01T06:19:47.309Z,6.33
2023-01-01T06:22:16.009Z,4.80
2023-01-01T06:24:44.531Z,8.17
2023-01-01T06:27:13.102Z,6.17
2023-01-01T06:29:41.569Z,11.63
2023-01-01T06:32:10.126Z,11.73
2023-01-01T06:34:40.131Z,10.67
2023-01-01T06:37:08.523Z,9.17
2023-01-01T06:39:36.994Z,5.80
2023-01-01T06:42:05.747Z,8.43
2023-01-01T06:44:34.290Z,4.70
2023-01-01T06:47:03.050Z,9.63
2023-01-01T06:49:31.782Z,6.67
2023-01-01T06:52:01.587Z,7.07
2023-01-01T06:54:30.190Z,7.10
2023-01-01T06:56:58.681Z,7.40
2023-01-01T06:59:27.164Z,8.83
2023-01-01T07:01:55.701Z,9.13
2023-01-01T07:04:24.357Z,4.17
2023-01-01T07:06:52.975Z,11.07
2023-01-01T07:09:23.226Z,7.10
2023-01-01T07:11:52.097Z,10.10
2023-01-01T07:14:20.938Z,4.87
2023-01-01T07:16:49.682Z,6.13
2023-01-01T07:19:18.194Z,8.80
2023-01-01T07:21:49.162Z,9.00
2023-01-01T07:24:18.041Z,6.70
2023-01-01T07:26:49.288Z,6.37
2023-01-01T07:29:18.104Z,10.43
2023-01-01T07:31:46.872Z,7.00
2023-01-01T07:34:19.340Z,12.13
2023-01-01T07:36:48.350Z,11.67
2023-01-01T07:39:16.929Z,9.20
2023-01-01T07:41:45.953Z,8.47
2023-01-01T07:44:16.511Z,8.30
2023-01-01T07:46:45.358Z,12.20
2023-01-01T07:49:13.873Z,6.80
2023-01-01T07:51:42.415Z,10.90
2023-01-01T07:54:11.032Z,9.17
2023-01-01T07:56:39.554Z,10.93
2023-01-01T07:59:08.074Z,9.20
2023-01-01T08:01:39.342Z,9.50
2023-01-01T08:04:08.230Z,11.80
2023-01-01T08:06:36.689Z,8.40
2023-01-01T08:09:05.259Z,8.13
2023-01-01T08:11:34.979Z,9.80
2023-01-01T08:14:03.626Z,7.23
2023-01-01T08:16:32.063Z,9.73
2023-01-01T08:19:01.995Z,8.50
2023-01-01T08:21:30.762Z,7.97
2023-01-01T08:23:59.561Z,10.50
2023-01-01T08:26:30.995Z,9.40
2023-01-01T08:29:00.289Z,9.07
2023-01-01T08:31:28.933Z,10.03
2023-01-01T08:33:57.810Z,7.67
2023-01-01T08:36:27.757Z,8.03
2023-01-01T08:38:56.320Z,9.07
2023-01-01T08:41:24.819Z,9.23
2023-01-01T08:43:53.481Z,9.63
2023-01-01T08:46:22.998Z,8.23
2023-01-01T08:48:51.610Z,8.77
2023-01-01T08:51:20.405Z,8.93
2023-01-01T08:53:51.503Z,8.87
2023-01-01T08:56:20.822Z,7.40
2023-01-01T08:58:49.921Z,10.00
2023-01-01T09:01:22.026Z,9.67
2023-01-01T09:03:51.244Z,12.20
2023-01-01T09:06:19.996Z,6.20
2023-01-01T09:08:48.553Z,10.97
2023-01-01T09:11:24.246Z,7.23
2023-01-01T09:13:53.615Z,9.43
2023-01-01T09:16:23.764Z,7.90
2023-01-01T09:18:53.002Z,11.23
2023-01-01T09:21:21.743Z,6.27
2023-01-01T09:23:50.386Z,5.30
2023-01-01T09:26:20.493Z,5.90
2023-01-01T09:28:49.042Z,6.50
2023-01-01T09:31:17.658Z,7.57
2023-01-01T09:33:46.118Z,11.00
2023-01-01T09:36:16.264Z,11.77
2023-01-01T09:38:44.927Z,5.67
2023-01-01T09:41:26.453Z,13.27
2023-01-01T09:44:03.750Z,10.20
2023-01-01T09:46:36.749Z,8.37
2023-01-01T09:49:12.783Z,13.27
2023-01-01T09:51:51.107Z,11.43
2023-01-01T09:54:29.763Z,9.17
2023-01-01T09:57:02.612Z,9.40
2023-01-01T09:59:31.612Z,9.47
2023-01-01T10:02:12.118Z,10.37
2023-01-01T10:04:57.030Z,8.53
2023-01-01T10:07:34.756Z,11.47
2023-01-01T10:10:09.661Z,5.40
2023-01-01T10:12:50.092Z,11.23
2023-01-01T10:15:22.768Z,9.40
2023-01-01T10:17:55.257Z,6.17
2023-01-01T10:20:28.191Z,9.80
2023-01-01T10:23:01.248Z,12.37
2023-01-01T10:25:33.518Z,11.70
2023-01-01T10:28:06.521Z,9.07
2023-01-01T10:30:35.105Z,9.20
2023-01-01T10:33:10.007Z,11.17
2023-01-01T10:35:42.873Z,6.87
2023-01-01T10:38:18.334Z,10.23
2023-01-01T10:40:47.023Z,11.77
2023-01-01T10:43:17.478Z,9.90
2023-01-01T10:45:49.751Z,12.07
2023-01-01T10:48:21.636Z,7.73
2023-01-01T10:50:53.084Z,9.43
2023-01-01T10:53:26.203Z,8.00
2023-01-01T10:56:01.794Z,8.30
2023-01-01T10:58:41.051Z,10.03
2023-01-01T11:01:12.425Z,8.37
2023-01-01T11:03:55.738Z,6.53
2023-01-01T11:06:26.841Z,11.87
2023-01-01T11:08:57.330Z,13.67
2023-01-01T11:11:32.956Z,8.33
2023-01-01T11:14:06.461Z,6.40
2023-01-01T11:16:35.132Z,7.07
2023-01-01T11:19:07.334Z,12.80
2023-01-01T11:21:37.041Z,10.47
2023-01-01T11:24:20.739Z,9.57
2023-01-01T11:26:54.654Z,16.83
2023-01-01T11:29:30.698Z,12.27
2023-01-01T11:32:01.779Z,7.40
2023-01-01T11:34:33.865Z,8.70
2023-01-01T11:37:20.099Z,10.37
2023-01-01T11:39:51.735Z,6.80
2023-01-01T11:42:23.460Z,12.20
2023-01-01T11:44:58.413Z,9.67
2023-01-01T11:47:32.134Z,10.60
2023-01-01T11:50:05.965Z,9.17
2023-01-01T11:52:40.759Z,11.10
2023-01-01T11:55:19.561Z,10.80
2023-01-01T11:57:58.044Z,9.97
2023-01-01T12:00:32.070Z,11.20
2023-01-01T12:03:05.638Z,7.87
2023-01-01T12:05:45.858Z,11.13
2023-01-01T12:08:18.685Z,9.47
2023-01-01T12:10:52.971Z,6.53
2023-01-01T12:13:26.436Z,9.77
2023-01-01T12:16:04.125Z,10.27
2023-01-01T12:18:39.399Z,17.73
2023-01-01T12:21:14.346Z,9.77
2023-01-01T12:23:43.349Z,10.43
2023-01-01T12:26:21.117Z,8.00
2023-01-01T12:29:27.172Z,9.60
2023-01-01T12:32:04.677Z,5.70
2023-01-01T12:34:39.515Z,12.50
2023-01-01T12:37:17.007Z,8.43
2023-01-01T12:40:32.544Z,11.57
2023-01-01T12:43:04.057Z,12.73
2023-01-01T12:46:08.097Z,13.43
2023-01-01T12:49:03.506Z,11.03
2023-01-01T12:51:43.100Z,10.83
2023-01-01T12:54:41.337Z,10.03
2023-01-01T12:57:16.422Z,13.13
2023-01-01T12:59:49.767Z,6.73
2023-01-01T13:02:24.685Z,10.37
2023-01-01T13:04:58.827Z,13.13
2023-01-01T13:07:32.228Z,9.13
2023-01-01T13:10:08.885Z,13.70
2023-01-01T13:12:39.244Z,11.67
2023-01-01T13:15:36.366Z,8.37
2023-01-01T13:18:07.312Z,8.83
2023-01-01T13:20:42.536Z,11.43
2023-01-01T13:23:43.385Z,14.00
2023-01-01T13:26:42.794Z,9.97
2023-01-01T13:29:51.429Z,10.43
2023-01-01T13:32:20.513Z,7.53
2023-01-01T13:35:03.266Z,11.07
2023-01-01T13:37:46.711Z,10.53
2023-01-01T13:40:54.158Z,9.27
2023-01-01T13:43:29.333Z,8.90
2023-01-01T13:46:15.417Z,7.50
2023-01-01T13:49:06.210Z,11.70
2023-01-01T13:52:08.294Z,12.27
2023-01-01T13:55:15.007Z,8.87
2023-01-01T13:58:11.754Z,11.90
2023-01-01T14:00:56.108Z,11.53
2023-01-01T14:03:27.936Z,13.00
2023-01-01T14:05:59.489Z,11.43
2023-01-01T14:08:33.074Z,13.73
2023-01-01T14:11:05.511Z,11.07
2023-01-01T14:13:41.835Z,12.43
2023-01-01T14:16:13.996Z,14.80
2023-01-01T14:18:45.723Z,10.30
2023-01-01T14:21:16.543Z,10.63
2023-01-01T14:23:47.046Z,10.97
2023-01-01T14:26:21.719Z,11.17
2023-01-01T14:28:54.605Z,13.67
2023-01-01T14:31:27.084Z,7.50
2023-01-01T14:33:56.443Z,11.20
2023-01-01T14:36:27.448Z,11.90
2023-01-01T14:38:57.647Z,13.70
2023-01-01T14:41:31.001Z,10.80
2023-01-01T14:44:06.234Z,10.60
2023-01-01T14:46:35.487Z,11.13
2023-01-01T14:49:10.524Z,13.47
2023-01-01T14:51:44.860Z,9.40
2023-01-01T14:54:19.544Z,8.37
2023-01-01T14:56:51.402Z,9.60
2023-01-01T14:59:25.241Z,9.43
2023-01-01T15:02:01.876Z,8.80
2023-01-01T15:04:31.076Z,9.07
2023-01-01T15:07:03.728Z,10.70
2023-01-01T15:09:33.806Z,9.30
2023-01-01T15:12:05.640Z,10.20
2023-01-01T15:14:38.222Z,9.83
2023-01-01T15:17:08.937Z,9.00
2023-01-01T15:19:41.227Z,9.57
2023-01-01T15:22:12.258Z,10.77
2023-01-01T15:24:41.326Z,11.10
2023-01-01T15:27:24.301Z,10.03
2023-01-01T15:29:53.454Z,8.27
2023-01-01T15:32:27.439Z,8.10
2023-01-01T15:34:57.779Z,9.03
2023-01-01T15:37:33.816Z,8.47
2023-01-01T15:40:05.748Z,10.13
2023-01-01T15:42:40.476Z,8.33
2023-01-01T15:45:24.376Z,9.43
2023-01-01T15:47:54.595Z,9.10
2023-01-01T15:50:26.749Z,12.37
2023-01-01T15:52:59.829Z,7.83
2023-01-01T15:55:33.262Z,9.77
2023-01-01T15:58:04.718Z,9.70
2023-01-01T16:00:37.768Z,6.63
2023-01-01T16:03:19.490Z,5.70
2023-01-01T16:05:50.404Z,9.03
2023-01-01T16:08:21.536Z,7.93
2023-01-01T16:10:51.018Z,14.07
2023-01-01T16:13:23.322Z,11.63
2023-01-01T16:15:53.273Z,10.20
2023-01-01T16:18:27.651Z,11.13
2023-01-01T16:20:56.782Z,7.63
2023-01-01T16:23:25.442Z,10.50
2023-01-01T16:25:54.037Z,8.73
2023-01-01T16:28:23.861Z,12.23
2023-01-01T16:30:52.546Z,10.17
2023-01-01T16:33:22.814Z,10.93
2023-01-01T16:35:52.611Z,9.47
2023-01-01T16:38:21.014Z,8.30
2023-01-01T16:40:52.265Z,11.63
2023-01-01T16:43:20.742Z,10.07
2023-01-01T16:45:50.725Z,11.30
2023-01-01T16:48:19.378Z,10.50
2023-01-01T16:50:52.441Z,10.83
2023-01-01T16:53:20.992Z,9.00
2023-01-01T16:55:52.826Z,10.53
2023-01-01T16:58:48.660Z,5.13
2023-01-01T17:01:12.196Z,10.83
2023-01-01T17:03:41.574Z,6.77
2023-01-01T17:06:11.665Z,8.07
2023-01-01T17:08:40.920Z,7.63
2023-01-01T17:11:14.263Z,5.50
2023-01-01T17:13:46.612Z,4.17
2023-01-01T17:16:26.006Z,4.07
2023-01-01T17:21:46.150Z,6.53
2023-01-01T17:24:14.972Z,7.20
2023-01-01T17:26:43.877Z,4.97
2023-01-01T17:29:12.695Z,11.40
2023-01-01T17:31:44.045Z,6.43
2023-01-01T17:34:14.655Z,7.60
2023-01-01T17:36:44.105Z,8.07
2023-01-01T17:39:13.341Z,8.00
2023-01-01T17:41:42.480Z,5.77
2023-01-01T17:44:11.786Z,6.00
2023-01-01T17:46:42.718Z,6.23
2023-01-01T17:49:12.674Z,7.00
2023-01-01T17:51:41.484Z,5.93
2023-01-01T17:54:13.950Z,9.47
2023-01-01T17:56:42.838Z,8.03
2023-01-01T17:59:11.688Z,5.67
2023-01-01T18:01:40.333Z,11.17
2023-01-01T18:04:10.597Z,5.83
2023-01-01T18:06:43.660Z,4.20
2023-01-01T18:09:14.881Z,6.63
2023-01-01T18:11:45.926Z,5.47
2023-01-01T18:14:18.369Z,7.33
2023-01-01T18:16:49.993Z,8.83
2023-01-01T18:19:19.552Z,6.43
2023-01-01T18:21:49.993Z,10.23
2023-01-01T18:24:19.060Z,6.53
2023-01-01T18:26:47.821Z,10.30
2023-01-01T18:29:17.856Z,5.83
2023-01-01T18:31:46.554Z,9.07
2023-01-01T18:34:15.050Z,9.30
2023-01-01T18:36:45.750Z,7.50
2023-01-01T18:39:21.475Z,6.30
2023-01-01T18:42:34.454Z,8.40
2023-01-01T18:45:09.879Z,11.50
2023-01-01T18:47:39.585Z,9.77
2023-01-01T18:50:17.579Z,11.53
2023-01-01T18:52:47.566Z,9.53
2023-01-01T18:55:19.230Z,12.53
2023-01-01T19:00:39.713Z,9.57
2023-01-01T19:03:15.439Z,7.93
2023-01-01T19:05:45.075Z,7.33
2023-01-01T19:08:18.760Z,14.23
2023-01-01T19:10:50.852Z,9.57
2023-01-01T19:13:22.583Z,7.57
2023-01-01T19:15:54.151Z,8.50
2023-01-01T19:18:24.779Z,8.23
2023-01-01T19:21:02.449Z,16.20
2023-01-01T19:23:32.388Z,12.40
2023-01-01T19:26:05.378Z,10.90
2023-01-01T19:28:39.336Z,7.40
2023-01-01T19:31:09.805Z,12.13
2023-01-01T19:33:38.366Z,9.73
2023-01-01T19:36:07.660Z,10.97
2023-01-01T19:38:36.325Z,11.90
2023-01-01T19:41:06.577Z,15.23
2023-01-01T19:43:35.827Z,11.00
2023-01-01T19:46:05.629Z,7.73
2023-01-01T19:48:35.033Z,11.73
2023-01-01T19:51:08.658Z,14.63
2023-01-01T19:53:37.269Z,10.67
2023-01-01T19:56:07.802Z,8.50
2023-01-01T19:58:36.583Z,19.00
2023-01-01T20:01:05.294Z,13.10
2023-01-01T20:03:53.491Z,14.73
2023-01-01T20:06:22.659Z,13.53
2023-01-01T20:08:51.613Z,10.17
2023-01-01T20:11:21.956Z,12.37
2023-01-01T20:13:50.917Z,15.07
2023-01-01T20:16:19.644Z,13.53
2023-01-01T20:18:54.979Z,14.00
2023-01-01T20:21:41.678Z,12.10
2023-01-01T20:24:11.314Z,14.20
2023-01-01T20:26:41.295Z,17.10
2023-01-01T20:29:22.252Z,9.07
2023-01-01T20:31:53.070Z,18.50
2023-01-01T20:34:22.193Z,21.00
2023-01-01T20:37:08.386Z,12.47
2023-01-01T20:39:39.814Z,15.73
2023-01-01T20:42:09.960Z,18.07
2023-01-01T20:44:38.541Z,18.93
2023-01-01T20:47:06.955Z,12.17
2023-01-01T20:49:35.489Z,17.53
2023-01-01T20:52:04.377Z,22.70
2023-01-01T20:54:33.285Z,11.63
2023-01-01T20:57:02.062Z,16.10
2023-01-01T20:59:37.756Z,19.47
2023-01-01T21:02:08.407Z,17.50
2023-01-01T21:04:39.180Z,17.63
2023-01-01T21:07:10.490Z,16.30
2023-01-01T21:09:39.395Z,17.93
2023-01-01T21:12:10.267Z,20.53
2023-01-01T21:14:40.920Z,17.50
2023-01-01T21:17:21.481Z,18.90
2023-01-01T21:19:51.207Z,19.93
2023-01-01T21:22:19.761Z,21.60
2023-01-01T21:24:53.544Z,24.03
2023-01-01T21:27:27.372Z,21.47
2023-01-01T21:30:00.072Z,23.90
2023-01-01T21:32:38.398Z,16.77
2023-01-01T21:35:17.680Z,24.90
2023-01-01T21:37:50.166Z,18.17
2023-01-01T21:40:46.283Z,22.73
2023-01-01T21:43:39.725Z,21.53
2023-01-01T21:46:24.976Z,23.40
2023-01-01T21:48:56.895Z,19.83
2023-01-01T21:51:27.725Z,22.03
2023-01-01T21:54:04.591Z,20.03
2023-01-01T21:56:36.459Z,15.63
2023-01-01T21:59:28.806Z,18.63
2023-01-01T22:02:09.621Z,18.20
2023-01-01T22:04:41.477Z,21.93
2023-01-01T22:10:16.546Z,18.30
2023-01-01T22:12:46.282Z,19.80
2023-01-01T22:15:30.961Z,22.00
2023-01-01T22:18:23.074Z,17.60
2023-01-01T22:20:52.263Z,17.83
2023-01-01T22:23:39.808Z,17.43
2023-01-01T22:26:23.475Z,18.87
2023-01-01T22:28:56.859Z,21.00
2023-01-01T22:31:29.722Z,17.53
2023-01-01T22:34:03.586Z,21.30
2023-01-01T22:36:35.393Z,19.93
2023-01-01T22:39:10.833Z,19.87
2023-01-01T22:41:39.765Z,15.70
2023-01-01T22:44:08.352Z,12.27
2023-01-01T22:46:38.948Z,22.23
2023-01-01T22:49:18.386Z,21.87
2023-01-01T22:51:48.152Z,18.57
2023-01-01T22:54:16.645Z,19.67
2023-01-01T22:56:45.253Z,17.87
2023-01-01T22:59:13.855Z,20.07
2023-01-01T23:01:42.597Z,17.53
2023-01-01T23:04:13.038Z,12.83
2023-01-01T23:06:41.687Z,15.70
2023-01-01T23:09:11.483Z,22.30
2023-01-01T23:11:40.362Z,16.33
2023-01-01T23:14:26.954Z,16.20
2023-01-01T23:16:55.412Z,21.57
2023-01-01T23:19:25.400Z,17.50
2023-01-01T23:21:55.172Z,19.73
2023-01-01T23:24:25.601Z,21.70
2023-01-01T23:26:54.729Z,18.20
2023-01-01T23:29:24.562Z,20.37
2023-01-01T23:31:53.349Z,17.73
2023-01-01T23:34:22.049Z,17.43
2023-01-01T23:36:54.323Z,18.07
2023-01-01T23:39:23.060Z,18.43
2023-01-01T23:41:51.735Z,25.00
2023-01-01T23:44:20.222Z,18.33
2023-01-01T23:46:49.027Z,22.37
2023-01-01T23:49:18.700Z,12.73
2023-01-01T23:51:47.822Z,15.90
2023-01-01T23:54:18.683Z,20.23
2023-01-01T23:56:47.591Z,19.87
2023-01-01T23:59:19.193Z,15.37
